sensor_id;sensor_type;location;lat;lon;timestamp;P1;durP1;ratioP1;P2;durP2;ratioP2
5137;SDS011;53959;53.626;11.410;2023-08-30T00:00:09;1653.20;;;825.93;;
5137;SDS011;53959;53.626;11.410;2023-08-30T00:02:35;1647.67;;;824.80;;
5137;SDS011;53959;53.626;11.410;2023-08-30T00:05:02;1664.20;;;828.10;;
5137;SDS011;53959;53.626;11.410;2023-08-30T00:07:28;1655.60;;;825.50;;
5137;SDS011;53959;53.626;11.410;2023-08-30T00:09:54;1656.27;;;824.97;;
5137;SDS011;53959;53.626;11.410;2023-08-30T00:12:19;1649.13;;;821.83;;
5137;SDS011;53959;53.626;11.410;2023-08-30T00:14:45;1650.97;;;823.53;;
5137;SDS011;53959;53.626;11.410;2023-08-30T00:17:10;1656.33;;;827.30;;
5137;SDS011;53959;53.626;11.410;2023-08-30T00:19:36;1654.47;;;825.73;;
5137;SDS011;53959;53.626;11.410;2023-08-30T00:22:01;1657.43;;;826.23;;
5137;SDS011;53959;53.626;11.410;2023-08-30T00:24:27;1648.30;;;825.60;;
5137;SDS011;53959;53.626;11.410;2023-08-30T00:26:53;1631.47;;;821.87;;
5137;SDS011;53959;53.626;11.410;2023-08-30T00:29:18;1630.40;;;821.90;;
5137;SDS011;53959;53.626;11.410;2023-08-30T00:31:44;1638.20;;;824.17;;
5137;SDS011;53959;53.626;11.410;2023-08-30T00:34:09;1637.00;;;824.03;;
5137;SDS011;53959;53.626;11.410;2023-08-30T00:36:35;1639.57;;;823.83;;
5137;SDS011;53959;53.626;11.410;2023-08-30T00:39:00;1638.43;;;823.00;;
5137;SDS011;53959;53.626;11.410;2023-08-30T00:41:25;1642.07;;;823.90;;
5137;SDS011;53959;53.626;11.410;2023-08-30T00:43:51;1628.27;;;821.50;;
5137;SDS011;53959;53.626;11.410;2023-08-30T00:46:17;1639.13;;;823.10;;
5137;SDS011;53959;53.626;11.410;2023-08-30T00:48:44;1642.00;;;824.70;;
5137;SDS011;53959;53.626;11.410;2023-08-30T00:51:09;1634.67;;;823.03;;
5137;SDS011;53959;53.626;11.410;2023-08-30T00:53:35;1625.67;;;820.53;;
5137;SDS011;53959;53.626;11.410;2023-08-30T00:56:01;1624.27;;;820.97;;
5137;SDS011;53959;53.626;11.410;2023-08-30T00:58:26;1638.77;;;823.70;;
5137;SDS011;53959;53.626;11.410;2023-08-30T01:00:52;1629.70;;;823.40;;
5137;SDS011;53959;53.626;11.410;2023-08-30T01:03:18;1631.33;;;823.53;;
5137;SDS011;53959;53.626;11.410;2023-08-30T01:05:45;1624.70;;;822.30;;
5137;SDS011;53959;53.626;11.410;2023-08-30T01:08:10;1624.93;;;823.07;;
5137;SDS011;53959;53.626;11.410;2023-08-30T01:13:20;1610.67;;;821.23;;
5137;SDS011;53959;53.626;11.410;2023-08-30T01:15:47;1621.70;;;822.83;;
5137;SDS011;53959;53.626;11.410;2023-08-30T01:18:14;1615.90;;;822.60;;
5137;SDS011;53959;53.626;11.410;2023-08-30T01:20:43;1630.03;;;823.83;;
5137;SDS011;53959;53.626;11.410;2023-08-30T01:23:58;1624.17;;;822.73;;
5137;SDS011;53959;53.626;11.410;2023-08-30T01:26:13;1605.90;;;822.23;;
5137;SDS011;53959;53.626;11.410;2023-08-30T01:28:42;1616.17;;;822.10;;
5137;SDS011;53959;53.626;11.410;2023-08-30T01:31:09;1633.17;;;821.37;;
5137;SDS011;53959;53.626;11.410;2023-08-30T01:33:36;1615.43;;;823.13;;
5137;SDS011;53959;53.626;11.410;2023-08-30T01:36:03;1620.77;;;822.17;;
5137;SDS011;53959;53.626;11.410;2023-08-30T01:38:32;1620.20;;;822.47;;
5137;SDS011;53959;53.626;11.410;2023-08-30T01:41:00;1621.73;;;821.93;;
5137;SDS011;53959;53.626;11.410;2023-08-30T01:43:26;1625.93;;;823.93;;
5137;SDS011;53959;53.626;11.410;2023-08-30T01:45:56;1625.43;;;824.27;;
5137;SDS011;53959;53.626;11.410;2023-08-30T01:48:22;1613.60;;;818.57;;
5137;SDS011;53959;53.626;11.410;2023-08-30T01:50:49;1622.03;;;821.57;;
5137;SDS011;53959;53.626;11.410;2023-08-30T01:53:15;1622.93;;;820.57;;
5137;SDS011;53959;53.626;11.410;2023-08-30T01:55:41;1619.63;;;820.97;;
5137;SDS011;53959;53.626;11.410;2023-08-30T01:58:07;1606.77;;;819.83;;
5137;SDS011;53959;53.626;11.410;2023-08-30T02:00:34;1619.00;;;823.13;;
5137;SDS011;53959;53.626;11.410;2023-08-30T02:03:06;1613.07;;;818.57;;
5137;SDS011;53959;53.626;11.410;2023-08-30T02:05:32;1603.97;;;819.10;;
5137;SDS011;53959;53.626;11.410;2023-08-30T02:08:09;1606.33;;;816.27;;
5137;SDS011;53959;53.626;11.410;2023-08-30T02:10:40;1606.97;;;820.77;;
5137;SDS011;53959;53.626;11.410;2023-08-30T02:13:09;1615.57;;;823.67;;
5137;SDS011;53959;53.626;11.410;2023-08-30T02:15:37;1619.73;;;822.57;;
5137;SDS011;53959;53.626;11.410;2023-08-30T02:18:06;1613.83;;;820.63;;
5137;SDS011;53959;53.626;11.410;2023-08-30T02:20:32;1616.40;;;822.60;;
5137;SDS011;53959;53.626;11.410;2023-08-30T02:22:58;1621.63;;;823.93;;
5137;SDS011;53959;53.626;11.410;2023-08-30T02:25:24;1614.77;;;820.70;;
5137;SDS011;53959;53.626;11.410;2023-08-30T02:27:50;1611.83;;;820.53;;
5137;SDS011;53959;53.626;11.410;2023-08-30T02:30:15;1625.60;;;822.43;;
5137;SDS011;53959;53.626;11.410;2023-08-30T02:32:40;1607.10;;;819.93;;
5137;SDS011;53959;53.626;11.410;2023-08-30T02:35:06;1613.30;;;818.23;;
5137;SDS011;53959;53.626;11.410;2023-08-30T02:37:31;1614.40;;;824.47;;
5137;SDS011;53959;53.626;11.410;2023-08-30T02:39:57;1618.03;;;823.20;;
5137;SDS011;53959;53.626;11.410;2023-08-30T02:42:22;1616.50;;;823.17;;
5137;SDS011;53959;53.626;11.410;2023-08-30T02:44:47;1621.70;;;822.90;;
5137;SDS011;53959;53.626;11.410;2023-08-30T02:47:13;1615.30;;;820.40;;
5137;SDS011;53959;53.626;11.410;2023-08-30T02:49:38;1604.07;;;820.23;;
5137;SDS011;53959;53.626;11.410;2023-08-30T02:52:03;1610.20;;;821.80;;
5137;SDS011;53959;53.626;11.410;2023-08-30T02:54:29;1619.43;;;822.30;;
5137;SDS011;53959;53.626;11.410;2023-08-30T02:56:54;1621.43;;;822.07;;
5137;SDS011;53959;53.626;11.410;2023-08-30T02:59:19;1612.57;;;822.07;;
5137;SDS011;53959;53.626;11.410;2023-08-30T03:01:45;1616.20;;;822.50;;
5137;SDS011;53959;53.626;11.410;2023-08-30T03:04:13;1607.40;;;820.17;;
5137;SDS011;53959;53.626;11.410;2023-08-30T03:06:40;1614.47;;;825.10;;
5137;SDS011;53959;53.626;11.410;2023-08-30T03:09:05;1615.07;;;823.53;;
5137;SDS011;53959;53.626;11.410;2023-08-30T03:11:34;1613.93;;;823.10;;
5137;SDS011;53959;53.626;11.410;2023-08-30T03:14:00;1604.43;;;822.20;;
5137;SDS011;53959;53.626;11.410;2023-08-30T03:16:25;1607.10;;;822.47;;
5137;SDS011;53959;53.626;11.410;2023-08-30T03:18:52;1607.17;;;821.20;;
5137;SDS011;53959;53.626;11.410;2023-08-30T03:21:17;1608.80;;;821.83;;
5137;SDS011;53959;53.626;11.410;2023-08-30T03:23:43;1611.73;;;820.97;;
5137;SDS011;53959;53.626;11.410;2023-08-30T03:26:09;1610.13;;;823.20;;
5137;SDS011;53959;53.626;11.410;2023-08-30T03:28:36;1609.77;;;822.10;;
5137;SDS011;53959;53.626;11.410;2023-08-30T03:31:01;1613.80;;;824.57;;
5137;SDS011;53959;53.626;11.410;2023-08-30T03:33:27;1613.50;;;821.40;;
5137;SDS011;53959;53.626;11.410;2023-08-30T03:35:53;1610.23;;;823.03;;
5137;SDS011;53959;53.626;11.410;2023-08-30T03:38:18;1598.30;;;819.70;;
5137;SDS011;53959;53.626;11.410;2023-08-30T03:40:44;1616.60;;;821.40;;
5137;SDS011;53959;53.626;11.410;2023-08-30T03:43:09;1617.73;;;825.10;;
5137;SDS011;53959;53.626;11.410;2023-08-30T03:45:37;1610.03;;;822.90;;
5137;SDS011;53959;53.626;11.410;2023-08-30T03:48:03;1600.33;;;818.03;;
5137;SDS011;53959;53.626;11.410;2023-08-30T03:50:29;1594.33;;;819.73;;
5137;SDS011;53959;53.626;11.410;2023-08-30T03:52:54;1601.27;;;818.00;;
5137;SDS011;53959;53.626;11.410;2023-08-30T03:55:20;1602.10;;;820.10;;
5137;SDS011;53959;53.626;11.410;2023-08-30T03:57:46;1600.77;;;819.17;;
5137;SDS011;53959;53.626;11.410;2023-08-30T04:00:11;1595.37;;;821.10;;
5137;SDS011;53959;53.626;11.410;2023-08-30T04:02:40;1601.87;;;819.70;;
5137;SDS011;53959;53.626;11.410;2023-08-30T04:05:05;1593.50;;;820.77;;
5137;SDS011;53959;53.626;11.410;2023-08-30T04:07:34;1609.50;;;826.17;;
5137;SDS011;53959;53.626;11.410;2023-08-30T04:10:00;1599.57;;;822.07;;
5137;SDS011;53959;53.626;11.410;2023-08-30T04:12:27;1601.50;;;821.63;;
5137;SDS011;53959;53.626;11.410;2023-08-30T04:14:53;1603.10;;;821.17;;
5137;SDS011;53959;53.626;11.410;2023-08-30T04:17:19;1601.70;;;821.57;;
5137;SDS011;53959;53.626;11.410;2023-08-30T04:19:44;1610.77;;;819.60;;
5137;SDS011;53959;53.626;11.410;2023-08-30T04:22:09;1607.77;;;819.97;;
5137;SDS011;53959;53.626;11.410;2023-08-30T04:24:35;1613.77;;;820.10;;
5137;SDS011;53959;53.626;11.410;2023-08-30T04:27:00;1606.27;;;823.07;;
5137;SDS011;53959;53.626;11.410;2023-08-30T04:29:25;1613.20;;;821.07;;
5137;SDS011;53959;53.626;11.410;2023-08-30T04:31:51;1603.53;;;817.10;;
5137;SDS011;53959;53.626;11.410;2023-08-30T04:34:16;1612.73;;;820.37;;
5137;SDS011;53959;53.626;11.410;2023-08-30T04:36:42;1608.67;;;824.20;;
5137;SDS011;53959;53.626;11.410;2023-08-30T04:39:08;1621.33;;;822.80;;
5137;SDS011;53959;53.626;11.410;2023-08-30T04:41:34;1623.83;;;821.13;;
5137;SDS011;53959;53.626;11.410;2023-08-30T04:43:59;1611.17;;;820.33;;
5137;SDS011;53959;53.626;11.410;2023-08-30T04:46:25;1623.73;;;821.00;;
5137;SDS011;53959;53.626;11.410;2023-08-30T04:48:51;1620.67;;;819.50;;
5137;SDS011;53959;53.626;11.410;2023-08-30T04:51:16;1618.73;;;821.40;;
5137;SDS011;53959;53.626;11.410;2023-08-30T04:53:42;1609.80;;;817.63;;
5137;SDS011;53959;53.626;11.410;2023-08-30T04:56:12;1617.00;;;820.73;;
5137;SDS011;53959;53.626;11.410;2023-08-30T04:58:38;1621.47;;;822.37;;
5137;SDS011;53959;53.626;11.410;2023-08-30T05:01:07;1608.07;;;819.17;;
5137;SDS011;53959;53.626;11.410;2023-08-30T05:03:32;1607.33;;;822.20;;
5137;SDS011;53959;53.626;11.410;2023-08-30T05:05:58;1614.97;;;824.97;;
5137;SDS011;53959;53.626;11.410;2023-08-30T05:08:23;1619.13;;;821.00;;
5137;SDS011;53959;53.626;11.410;2023-08-30T05:10:49;1619.83;;;822.80;;
5137;SDS011;53959;53.626;11.410;2023-08-30T05:13:15;1611.70;;;820.23;;
5137;SDS011;53959;53.626;11.410;2023-08-30T05:15:41;1604.63;;;821.03;;
5137;SDS011;53959;53.626;11.410;2023-08-30T05:18:07;1612.23;;;822.37;;
5137;SDS011;53959;53.626;11.410;2023-08-30T05:20:33;1606.97;;;823.97;;
5137;SDS011;53959;53.626;11.410;2023-08-30T05:22:58;1604.43;;;823.73;;
5137;SDS011;53959;53.626;11.410;2023-08-30T05:25:24;1607.50;;;824.47;;
5137;SDS011;53959;53.626;11.410;2023-08-30T05:27:50;1602.00;;;817.70;;
5137;SDS011;53959;53.626;11.410;2023-08-30T05:30:15;1608.20;;;820.90;;
5137;SDS011;53959;53.626;11.410;2023-08-30T05:32:41;1602.43;;;820.23;;
5137;SDS011;53959;53.626;11.410;2023-08-30T05:35:22;1592.40;;;823.23;;
5137;SDS011;53959;53.626;11.410;2023-08-30T05:37:50;1603.73;;;819.83;;
5137;SDS011;53959;53.626;11.410;2023-08-30T05:40:34;1577.47;;;818.00;;
5137;SDS011;53959;53.626;11.410;2023-08-30T05:43:01;1595.33;;;816.60;;
5137;SDS011;53959;53.626;11.410;2023-08-30T05:45:27;1596.03;;;817.67;;
5137;SDS011;53959;53.626;11.410;2023-08-30T05:47:52;1592.57;;;813.63;;
5137;SDS011;53959;53.626;11.410;2023-08-30T05:50:17;1609.00;;;820.73;;
5137;SDS011;53959;53.626;11.410;2023-08-30T05:52:43;1609.67;;;821.63;;
5137;SDS011;53959;53.626;11.410;2023-08-30T05:55:09;1609.17;;;820.37;;
5137;SDS011;53959;53.626;11.410;2023-08-30T05:57:35;1603.03;;;820.03;;
5137;SDS011;53959;53.626;11.410;2023-08-30T06:00:02;1596.37;;;817.50;;
5137;SDS011;53959;53.626;11.410;2023-08-30T06:02:39;1586.27;;;814.97;;
5137;SDS011;53959;53.626;11.410;2023-08-30T06:05:05;1603.37;;;820.13;;
5137;SDS011;53959;53.626;11.410;2023-08-30T06:07:31;1608.40;;;819.00;;
5137;SDS011;53959;53.626;11.410;2023-08-30T06:09:56;1599.07;;;813.87;;
5137;SDS011;53959;53.626;11.410;2023-08-30T06:12:21;1606.67;;;816.97;;
5137;SDS011;53959;53.626;11.410;2023-08-30T06:14:47;1613.40;;;819.73;;
5137;SDS011;53959;53.626;11.410;2023-08-30T06:17:17;1605.67;;;820.80;;
5137;SDS011;53959;53.626;11.410;2023-08-30T06:19:45;1604.13;;;816.67;;
5137;SDS011;53959;53.626;11.410;2023-08-30T06:22:11;1613.03;;;819.73;;
5137;SDS011;53959;53.626;11.410;2023-08-30T06:24:37;1616.27;;;820.00;;
5137;SDS011;53959;53.626;11.410;2023-08-30T06:27:02;1619.93;;;822.13;;
5137;SDS011;53959;53.626;11.410;2023-08-30T06:29:28;1616.47;;;819.30;;
5137;SDS011;53959;53.626;11.410;2023-08-30T06:31:53;1613.10;;;820.50;;
5137;SDS011;53959;53.626;11.410;2023-08-30T06:34:18;1610.43;;;818.70;;
5137;SDS011;53959;53.626;11.410;2023-08-30T06:36:44;1608.50;;;815.67;;
5137;SDS011;53959;53.626;11.410;2023-08-30T06:39:10;1622.43;;;820.30;;
5137;SDS011;53959;53.626;11.410;2023-08-30T06:41:35;1624.73;;;820.87;;
5137;SDS011;53959;53.626;11.410;2023-08-30T06:44:00;1608.37;;;820.57;;
5137;SDS011;53959;53.626;11.410;2023-08-30T06:46:26;1614.70;;;819.93;;
5137;SDS011;53959;53.626;11.410;2023-08-30T06:48:51;1619.50;;;821.23;;
5137;SDS011;53959;53.626;11.410;2023-08-30T06:51:17;1609.17;;;819.77;;
5137;SDS011;53959;53.626;11.410;2023-08-30T06:53:42;1609.00;;;819.83;;
5137;SDS011;53959;53.626;11.410;2023-08-30T06:56:07;1615.10;;;821.03;;
5137;SDS011;53959;53.626;11.410;2023-08-30T06:58:33;1615.63;;;820.10;;
5137;SDS011;53959;53.626;11.410;2023-08-30T07:00:58;1611.53;;;819.90;;
5137;SDS011;53959;53.626;11.410;2023-08-30T07:03:23;1628.87;;;821.33;;
5137;SDS011;53959;53.626;11.410;2023-08-30T07:05:50;1640.07;;;823.87;;
5137;SDS011;53959;53.626;11.410;2023-08-30T07:08:16;1637.83;;;820.43;;
5137;SDS011;53959;53.626;11.410;2023-08-30T07:10:41;1641.57;;;822.50;;
5137;SDS011;53959;53.626;11.410;2023-08-30T07:13:07;1639.80;;;821.57;;
5137;SDS011;53959;53.626;11.410;2023-08-30T07:15:36;1643.10;;;823.63;;
5137;SDS011;53959;53.626;11.410;2023-08-30T07:18:02;1642.37;;;822.53;;
5137;SDS011;53959;53.626;11.410;2023-08-30T07:20:28;1637.07;;;821.73;;
5137;SDS011;53959;53.626;11.410;2023-08-30T07:22:54;1643.17;;;822.67;;
5137;SDS011;53959;53.626;11.410;2023-08-30T07:25:19;1640.97;;;824.77;;
5137;SDS011;53959;53.626;11.410;2023-08-30T07:27:44;1657.10;;;824.90;;
5137;SDS011;53959;53.626;11.410;2023-08-30T07:30:10;1650.73;;;822.90;;
5137;SDS011;53959;53.626;11.410;2023-08-30T07:32:35;1654.90;;;825.17;;
5137;SDS011;53959;53.626;11.410;2023-08-30T07:35:03;1649.63;;;825.90;;
5137;SDS011;53959;53.626;11.410;2023-08-30T07:37:29;1655.70;;;822.43;;
5137;SDS011;53959;53.626;11.410;2023-08-30T07:39:54;1654.17;;;824.13;;
5137;SDS011;53959;53.626;11.410;2023-08-30T07:42:20;1657.57;;;826.33;;
5137;SDS011;53959;53.626;11.410;2023-08-30T07:44:45;1657.37;;;824.47;;
5137;SDS011;53959;53.626;11.410;2023-08-30T07:47:10;1660.10;;;826.97;;
5137;SDS011;53959;53.626;11.410;2023-08-30T07:49:36;1698.37;;;827.13;;
5137;SDS011;53959;53.626;11.410;2023-08-30T07:52:01;1736.60;;;833.67;;
5137;SDS011;53959;53.626;11.410;2023-08-30T07:54:26;1735.23;;;836.90;;
5137;SDS011;53959;53.626;11.410;2023-08-30T07:56:53;1773.83;;;840.47;;
5137;SDS011;53959;53.626;11.410;2023-08-30T07:59:18;1739.50;;;841.00;;
5137;SDS011;53959;53.626;11.410;2023-08-30T08:01:43;1717.10;;;842.20;;
5137;SDS011;53959;53.626;11.410;2023-08-30T08:04:09;1698.97;;;842.00;;
5137;SDS011;53959;53.626;11.410;2023-08-30T08:06:34;1703.33;;;841.00;;
5137;SDS011;53959;53.626;11.410;2023-08-30T08:08:59;1692.80;;;839.10;;
5137;SDS011;53959;53.626;11.410;2023-08-30T08:11:25;1687.93;;;840.73;;
5137;SDS011;53959;53.626;11.410;2023-08-30T08:13:50;1692.17;;;840.17;;
5137;SDS011;53959;53.626;11.410;2023-08-30T08:16:16;1683.67;;;840.07;;
5137;SDS011;53959;53.626;11.410;2023-08-30T08:18:41;1696.23;;;840.90;;
5137;SDS011;53959;53.626;11.410;2023-08-30T08:21:06;1684.73;;;838.07;;
5137;SDS011;53959;53.626;11.410;2023-08-30T08:23:32;1655.83;;;828.40;;
5137;SDS011;53959;53.626;11.410;2023-08-30T08:26:00;1667.67;;;830.80;;
5137;SDS011;53959;53.626;11.410;2023-08-30T08:28:27;1696.93;;;837.97;;
5137;SDS011;53959;53.626;11.410;2023-08-30T08:30:53;1677.37;;;834.20;;
5137;SDS011;53959;53.626;11.410;2023-08-30T08:33:18;1681.97;;;835.00;;
5137;SDS011;53959;53.626;11.410;2023-08-30T08:35:44;1661.77;;;826.67;;
5137;SDS011;53959;53.626;11.410;2023-08-30T08:38:10;1667.10;;;828.87;;
5137;SDS011;53959;53.626;11.410;2023-08-30T08:40:36;1681.97;;;838.47;;
5137;SDS011;53959;53.626;11.410;2023-08-30T08:43:04;1689.87;;;837.97;;
5137;SDS011;53959;53.626;11.410;2023-08-30T08:45:30;1702.07;;;838.70;;
5137;SDS011;53959;53.626;11.410;2023-08-30T08:47:59;1698.50;;;838.80;;
5137;SDS011;53959;53.626;11.410;2023-08-30T08:50:26;1701.63;;;837.67;;
5137;SDS011;53959;53.626;11.410;2023-08-30T08:52:53;1688.13;;;838.00;;
5137;SDS011;53959;53.626;11.410;2023-08-30T08:55:19;1686.23;;;839.43;;
5137;SDS011;53959;53.626;11.410;2023-08-30T08:57:45;1694.97;;;839.50;;
5137;SDS011;53959;53.626;11.410;2023-08-30T09:00:11;1688.10;;;838.87;;
5137;SDS011;53959;53.626;11.410;2023-08-30T09:02:38;1706.40;;;839.37;;
5137;SDS011;53959;53.626;11.410;2023-08-30T09:05:05;1702.20;;;838.57;;
5137;SDS011;53959;53.626;11.410;2023-08-30T09:07:32;1719.50;;;842.00;;
5137;SDS011;53959;53.626;11.410;2023-08-30T09:09:58;1690.67;;;838.40;;
5137;SDS011;53959;53.626;11.410;2023-08-30T09:12:24;1689.10;;;839.43;;
5137;SDS011;53959;53.626;11.410;2023-08-30T09:14:53;1687.93;;;839.37;;
5137;SDS011;53959;53.626;11.410;2023-08-30T09:17:20;1686.73;;;841.10;;
5137;SDS011;53959;53.626;11.410;2023-08-30T09:19:46;1693.57;;;840.50;;
5137;SDS011;53959;53.626;11.410;2023-08-30T09:22:11;1679.80;;;838.23;;
5137;SDS011;53959;53.626;11.410;2023-08-30T09:24:39;1675.17;;;837.77;;
5137;SDS011;53959;53.626;11.410;2023-08-30T09:27:05;1658.07;;;836.53;;
5137;SDS011;53959;53.626;11.410;2023-08-30T09:29:31;1638.70;;;830.10;;
5137;SDS011;53959;53.626;11.410;2023-08-30T09:31:57;1622.03;;;830.97;;
5137;SDS011;53959;53.626;11.410;2023-08-30T09:34:25;1610.67;;;830.00;;
5137;SDS011;53959;53.626;11.410;2023-08-30T09:36:51;1593.10;;;822.90;;
5137;SDS011;53959;53.626;11.410;2023-08-30T09:39:17;1602.70;;;829.67;;
5137;SDS011;53959;53.626;11.410;2023-08-30T09:41:43;1595.50;;;826.03;;
5137;SDS011;53959;53.626;11.410;2023-08-30T09:44:10;1593.93;;;826.40;;
5137;SDS011;53959;53.626;11.410;2023-08-30T09:46:49;1574.17;;;819.63;;
5137;SDS011;53959;53.626;11.410;2023-08-30T09:49:17;1592.67;;;825.13;;
5137;SDS011;53959;53.626;11.410;2023-08-30T09:51:44;1574.93;;;819.27;;
5137;SDS011;53959;53.626;11.410;2023-08-30T09:54:15;1582.43;;;823.20;;
5137;SDS011;53959;53.626;11.410;2023-08-30T09:56:44;1583.60;;;820.87;;
5137;SDS011;53959;53.626;11.410;2023-08-30T09:59:11;1592.67;;;823.07;;
5137;SDS011;53959;53.626;11.410;2023-08-30T10:01:38;1599.43;;;827.23;;
5137;SDS011;53959;53.626;11.410;2023-08-30T10:04:04;1596.63;;;824.30;;
5137;SDS011;53959;53.626;11.410;2023-08-30T10:06:31;1599.80;;;826.97;;
5137;SDS011;53959;53.626;11.410;2023-08-30T10:08:57;1607.73;;;829.67;;
5137;SDS011;53959;53.626;11.410;2023-08-30T10:11:24;1589.70;;;823.83;;
5137;SDS011;53959;53.626;11.410;2023-08-30T10:13:51;1595.07;;;825.57;;
5137;SDS011;53959;53.626;11.410;2023-08-30T10:16:20;1586.77;;;822.10;;
5137;SDS011;53959;53.626;11.410;2023-08-30T10:18:59;1589.63;;;823.23;;
5137;SDS011;53959;53.626;11.410;2023-08-30T10:21:29;1602.57;;;828.03;;
5137;SDS011;53959;53.626;11.410;2023-08-30T10:23:55;1618.87;;;831.63;;
5137;SDS011;53959;53.626;11.410;2023-08-30T10:26:23;1605.03;;;826.67;;
5137;SDS011;53959;53.626;11.410;2023-08-30T10:28:51;1612.20;;;827.80;;
5137;SDS011;53959;53.626;11.410;2023-08-30T10:31:18;1605.10;;;826.17;;
5137;SDS011;53959;53.626;11.410;2023-08-30T10:33:47;1608.87;;;827.13;;
5137;SDS011;53959;53.626;11.410;2023-08-30T10:36:23;1599.63;;;825.07;;
5137;SDS011;53959;53.626;11.410;2023-08-30T10:38:50;1602.10;;;827.07;;
5137;SDS011;53959;53.626;11.410;2023-08-30T10:41:23;1607.53;;;828.33;;
5137;SDS011;53959;53.626;11.410;2023-08-30T10:43:50;1607.77;;;826.90;;
5137;SDS011;53959;53.626;11.410;2023-08-30T10:46:17;1610.47;;;827.97;;
5137;SDS011;53959;53.626;11.410;2023-08-30T10:48:53;1615.70;;;831.17;;
5137;SDS011;53959;53.626;11.410;2023-08-30T10:51:20;1618.90;;;827.67;;
5137;SDS011;53959;53.626;11.410;2023-08-30T10:53:56;1617.57;;;830.23;;
5137;SDS011;53959;53.626;11.410;2023-08-30T10:56:29;1609.57;;;829.53;;
5137;SDS011;53959;53.626;11.410;2023-08-30T10:58:56;1609.53;;;828.73;;
5137;SDS011;53959;53.626;11.410;2023-08-30T11:01:22;1616.83;;;829.27;;
5137;SDS011;53959;53.626;11.410;2023-08-30T11:03:47;1609.83;;;827.47;;
5137;SDS011;53959;53.626;11.410;2023-08-30T11:06:14;1621.90;;;830.47;;
5137;SDS011;53959;53.626;11.410;2023-08-30T11:08:42;1615.43;;;829.63;;
5137;SDS011;53959;53.626;11.410;2023-08-30T11:11:08;1607.90;;;827.63;;
5137;SDS011;53959;53.626;11.410;2023-08-30T11:13:36;1613.50;;;828.27;;
5137;SDS011;53959;53.626;11.410;2023-08-30T11:16:01;1602.37;;;824.10;;
5137;SDS011;53959;53.626;11.410;2023-08-30T11:18:29;1609.43;;;824.43;;
5137;SDS011;53959;53.626;11.410;2023-08-30T11:20:58;1607.87;;;824.80;;
5137;SDS011;53959;53.626;11.410;2023-08-30T11:23:26;1608.17;;;825.50;;
5137;SDS011;53959;53.626;11.410;2023-08-30T11:25:51;1608.40;;;829.00;;
5137;SDS011;53959;53.626;11.410;2023-08-30T11:28:24;1611.43;;;827.40;;
5137;SDS011;53959;53.626;11.410;2023-08-30T11:30:52;1605.63;;;824.00;;
5137;SDS011;53959;53.626;11.410;2023-08-30T11:33:18;1629.47;;;828.97;;
5137;SDS011;53959;53.626;11.410;2023-08-30T11:35:44;1626.37;;;831.57;;
5137;SDS011;53959;53.626;11.410;2023-08-30T11:38:10;1600.67;;;819.57;;
5137;SDS011;53959;53.626;11.410;2023-08-30T11:40:36;1599.33;;;824.80;;
5137;SDS011;53959;53.626;11.410;2023-08-30T11:43:02;1620.90;;;831.70;;
5137;SDS011;53959;53.626;11.410;2023-08-30T11:45:28;1620.40;;;831.23;;
5137;SDS011;53959;53.626;11.410;2023-08-30T11:47:57;1611.73;;;829.20;;
5137;SDS011;53959;53.626;11.410;2023-08-30T11:50:24;1618.57;;;822.97;;
5137;SDS011;53959;53.626;11.410;2023-08-30T11:52:50;1621.97;;;828.00;;
5137;SDS011;53959;53.626;11.410;2023-08-30T11:55:15;1604.43;;;827.33;;
5137;SDS011;53959;53.626;11.410;2023-08-30T11:57:44;1605.00;;;828.20;;
5137;SDS011;53959;53.626;11.410;2023-08-30T12:00:10;1580.00;;;816.73;;
5137;SDS011;53959;53.626;11.410;2023-08-30T12:02:37;1626.73;;;828.60;;
5137;SDS011;53959;53.626;11.410;2023-08-30T12:05:03;1608.40;;;829.23;;
5137;SDS011;53959;53.626;11.410;2023-08-30T12:07:29;1617.73;;;824.47;;
5137;SDS011;53959;53.626;11.410;2023-08-30T12:10:07;1613.33;;;826.40;;
5137;SDS011;53959;53.626;11.410;2023-08-30T12:12:34;1589.30;;;814.13;;
5137;SDS011;53959;53.626;11.410;2023-08-30T12:15:09;1608.20;;;824.90;;
5137;SDS011;53959;53.626;11.410;2023-08-30T12:17:36;1605.13;;;825.67;;
5137;SDS011;53959;53.626;11.410;2023-08-30T12:20:02;1628.43;;;826.00;;
5137;SDS011;53959;53.626;11.410;2023-08-30T12:22:38;1602.97;;;821.30;;
5137;SDS011;53959;53.626;11.410;2023-08-30T12:25:04;1617.30;;;829.40;;
5137;SDS011;53959;53.626;11.410;2023-08-30T12:27:40;1615.43;;;828.70;;
5137;SDS011;53959;53.626;11.410;2023-08-30T12:30:06;1623.70;;;828.43;;
5137;SDS011;53959;53.626;11.410;2023-08-30T12:32:32;1610.33;;;822.23;;
5137;SDS011;53959;53.626;11.410;2023-08-30T12:34:57;1611.57;;;823.40;;
5137;SDS011;53959;53.626;11.410;2023-08-30T12:37:23;1644.23;;;832.17;;
5137;SDS011;53959;53.626;11.410;2023-08-30T12:39:49;1621.33;;;827.77;;
5137;SDS011;53959;53.626;11.410;2023-08-30T12:42:14;1606.17;;;822.70;;
5137;SDS011;53959;53.626;11.410;2023-08-30T12:44:40;1612.87;;;824.60;;
5137;SDS011;53959;53.626;11.410;2023-08-30T12:47:05;1630.70;;;826.97;;
5137;SDS011;53959;53.626;11.410;2023-08-30T12:49:30;1607.53;;;823.37;;
5137;SDS011;53959;53.626;11.410;2023-08-30T12:51:56;1616.20;;;822.57;;
5137;SDS011;53959;53.626;11.410;2023-08-30T12:54:21;1614.00;;;822.97;;
5137;SDS011;53959;53.626;11.410;2023-08-30T12:56:46;1624.33;;;827.07;;
5137;SDS011;53959;53.626;11.410;2023-08-30T12:59:12;1625.77;;;826.30;;
5137;SDS011;53959;53.626;11.410;2023-08-30T13:01:37;1605.80;;;823.97;;
5137;SDS011;53959;53.626;11.410;2023-08-30T13:04:02;1621.67;;;823.57;;
5137;SDS011;53959;53.626;11.410;2023-08-30T13:06:28;1604.95;;;822.95;;
5137;SDS011;53959;53.626;11.410;2023-08-30T13:08:53;1620.07;;;824.03;;
5137;SDS011;53959;53.626;11.410;2023-08-30T13:11:19;1621.10;;;826.53;;
5137;SDS011;53959;53.626;11.410;2023-08-30T13:13:44;1604.57;;;827.53;;
5137;SDS011;53959;53.626;11.410;2023-08-30T13:16:09;1568.73;;;811.80;;
5137;SDS011;53959;53.626;11.410;2023-08-30T13:18:35;1618.83;;;827.90;;
5137;SDS011;53959;53.626;11.410;2023-08-30T13:21:00;1599.27;;;827.07;;
5137;SDS011;53959;53.626;11.410;2023-08-30T13:23:25;1611.13;;;829.23;;
5137;SDS011;53959;53.626;11.410;2023-08-30T13:25:51;1612.80;;;830.07;;
5137;SDS011;53959;53.626;11.410;2023-08-30T13:28:16;1591.33;;;822.23;;
5137;SDS011;53959;53.626;11.410;2023-08-30T13:30:45;1611.80;;;830.10;;
5137;SDS011;53959;53.626;11.410;2023-08-30T13:33:11;1598.90;;;822.30;;
5137;SDS011;53959;53.626;11.410;2023-08-30T13:35:38;1605.00;;;828.73;;
5137;SDS011;53959;53.626;11.410;2023-08-30T13:38:04;1599.13;;;826.80;;
5137;SDS011;53959;53.626;11.410;2023-08-30T13:40:29;1608.23;;;829.07;;
5137;SDS011;53959;53.626;11.410;2023-08-30T13:42:55;1603.27;;;828.00;;